This is the latest recevied weather packets stored in our database for station/object EA6AMI-5. If no packets are shown the sender has not sent any weather packets the latest 10 day(s).
| Time | Temp. | Humidity | Pressure | Rain* | Wind** | Luminosity | Snow |
|---|---|---|---|---|---|---|---|
| 1777353483 | 11.67° C | 79% | 1014.3 hPa | 0 mm | - | 17 W/m² | - |
| 1777352943 | 11.11° C | 79% | 1014.1 hPa | 0 mm | - | 9 W/m² | - |
| 1777352403 | 11.67° C | 79% | 1014.3 hPa | 0 mm | - | 5 W/m² | - |
| 1777352043 | 11.67° C | 79% | 1014.2 hPa | 0 mm | - | 2 W/m² | - |
| 1777351504 | 11.11° C | 79% | 1014.3 hPa | 0 mm | - | 0 W/m² | - |
| 1777350964 | 11.11° C | 78% | 1014.4 hPa | 0 mm | - | 0 W/m² | - |
| 1777350423 | 11.67° C | 77% | 1014.5 hPa | 0 mm | - | 0 W/m² | - |
| 1777349884 | 11.67° C | 77% | 1014.6 hPa | 0 mm | - | 0 W/m² | - |
| 1777349343 | 11.67° C | 76% | 1014.6 hPa | 0 mm | - | 0 W/m² | - |
| 1777348803 | 11.67° C | 78% | 1014.5 hPa | 0 mm | - | 0 W/m² | - |
| 1777348443 | 11.11° C | 77% | 1014.7 hPa | 0 mm | - | 0 W/m² | - |
| 1777347904 | 11.11° C | 76% | 1014.7 hPa | 0 mm | - | 0 W/m² | - |
| 1777347364 | 11.67° C | 74% | 1014.8 hPa | 0 mm | - | 0 W/m² | - |
| 1777346824 | 11.67° C | 75% | 1014.8 hPa | 0 mm | - | 0 W/m² | - |
| 1777346284 | 11.67° C | 74% | 1014.7 hPa | 0 mm | - | 0 W/m² | - |
| 1777345744 | 11.67° C | 73% | 1015.1 hPa | 0 mm | - | 0 W/m² | - |
| 1777345204 | 12.22° C | 73% | 1015.3 hPa | 0 mm | - | 0 W/m² | - |
| 1777344843 | 12.22° C | 73% | 1015.4 hPa | 0 mm | - | 0 W/m² | - |
| 1777344303 | 12.22° C | 72% | 1015.6 hPa | 0 mm | - | 0 W/m² | - |
| 1777343764 | 12.22° C | 72% | 1015.6 hPa | 0 mm | - | 0 W/m² | - |
| 1777343223 | 11.67° C | 73% | 1015.7 hPa | 0 mm | - | 0 W/m² | - |
| 1777342684 | 12.22° C | 71% | 1015.8 hPa | 0 mm | - | 0 W/m² | - |
| 1777342144 | 13.33° C | 67% | 1015.9 hPa | 0 mm | - | 0 W/m² | - |
| 1777341604 | 12.78° C | 69% | 1015.9 hPa | 0 mm | - | 0 W/m² | - |
| 1777341244 | 12.78° C | 70% | 1015.8 hPa | 0 mm | - | 0 W/m² | - |
* Rain latest hour (hover to see other rain measurements)
** Current wind speed in m/s (hover to see current wind gust speed)